createdAt,value
2023-02-28T00:01:37.439Z,1.93
2023-02-28T00:04:05.534Z,1.87
2023-02-28T00:06:33.890Z,2.00
2023-02-28T00:09:01.839Z,2.10
2023-02-28T00:11:31.460Z,2.30
2023-02-28T00:13:59.525Z,2.00
2023-02-28T00:16:27.895Z,1.80
2023-02-28T00:18:55.792Z,2.13
2023-02-28T00:21:23.865Z,2.23
2023-02-28T00:23:51.728Z,2.63
2023-02-28T00:26:21.923Z,2.00
2023-02-28T00:28:53.691Z,1.80
2023-02-28T00:31:21.896Z,2.10
2023-02-28T00:33:49.945Z,2.30
2023-02-28T00:36:17.850Z,2.07
2023-02-28T00:38:45.729Z,2.00
2023-02-28T00:41:13.665Z,2.20
2023-02-28T00:43:44.129Z,2.10
2023-02-28T00:46:14.134Z,1.90
2023-02-28T00:48:42.227Z,2.20
2023-02-28T00:51:10.251Z,2.10
2023-02-28T00:53:38.404Z,2.30
2023-02-28T00:56:07.229Z,2.27
2023-02-28T00:58:35.311Z,2.17
2023-02-28T01:01:03.826Z,2.10
2023-02-28T01:03:33.312Z,2.30
2023-02-28T01:06:01.420Z,2.20
2023-02-28T01:08:29.498Z,2.00
2023-02-28T01:10:57.566Z,2.23
2023-02-28T01:13:26.621Z,2.20
2023-02-28T01:15:57.322Z,2.50
2023-02-28T01:18:25.640Z,2.13
2023-02-28T01:20:55.103Z,2.30
2023-02-28T01:23:24.480Z,2.47
2023-02-28T01:25:53.000Z,2.40
2023-02-28T01:28:21.098Z,2.57
2023-02-28T01:30:50.746Z,2.50
2023-02-28T01:33:18.970Z,2.20
2023-02-28T01:35:47.146Z,2.13
2023-02-28T01:38:22.455Z,2.20
2023-02-28T01:40:51.200Z,2.20
2023-02-28T01:43:24.194Z,2.67
2023-02-28T01:45:52.446Z,2.93
2023-02-28T01:48:21.431Z,2.53
2023-02-28T01:50:50.359Z,2.47
2023-02-28T01:53:24.560Z,2.30
2023-02-28T01:55:54.428Z,2.67
2023-02-28T01:58:22.633Z,2.30
2023-02-28T02:00:51.008Z,2.90
2023-02-28T02:03:21.082Z,3.03
2023-02-28T02:05:49.447Z,2.40
2023-02-28T02:08:21.975Z,3.03
2023-02-28T02:10:54.459Z,2.90
2023-02-28T02:13:40.277Z,2.30
2023-02-28T02:16:16.758Z,2.87
2023-02-28T02:18:49.379Z,2.80
2023-02-28T02:21:34.999Z,2.40
2023-02-28T02:24:40.895Z,2.87
2023-02-28T02:27:20.104Z,2.40
2023-02-28T02:30:06.996Z,2.37
2023-02-28T02:32:51.882Z,2.80
2023-02-28T02:35:27.586Z,2.80
2023-02-28T02:38:01.943Z,2.67
2023-02-28T02:40:34.362Z,2.60
2023-02-28T02:43:05.241Z,2.80
2023-02-28T02:45:37.054Z,2.70
2023-02-28T02:48:09.247Z,2.83
2023-02-28T02:50:41.099Z,2.70
2023-02-28T02:53:09.835Z,2.50
2023-02-28T02:55:42.589Z,2.40
2023-02-28T02:58:13.267Z,2.73
2023-02-28T03:00:44.808Z,2.73
2023-02-28T03:03:13.717Z,3.00
2023-02-28T03:05:45.196Z,2.73
2023-02-28T03:08:13.632Z,2.53
2023-02-28T03:10:43.464Z,2.60
2023-02-28T03:13:26.865Z,3.20
2023-02-28T03:16:03.460Z,3.03
2023-02-28T03:18:34.833Z,2.40
2023-02-28T03:21:09.357Z,2.90
2023-02-28T03:23:41.219Z,2.67
2023-02-28T03:26:14.878Z,2.93
2023-02-28T03:28:47.486Z,2.93
2023-02-28T03:31:19.754Z,2.60
2023-02-28T03:33:55.771Z,2.53
2023-02-28T03:36:27.806Z,2.80
2023-02-28T03:38:58.330Z,2.40
2023-02-28T03:41:28.550Z,2.57
2023-02-28T03:44:02.148Z,3.00
2023-02-28T03:46:34.084Z,2.70
2023-02-28T03:49:06.019Z,2.80
2023-02-28T03:51:35.804Z,2.63
2023-02-28T03:54:07.738Z,2.70
2023-02-28T03:56:39.824Z,2.90
2023-02-28T03:59:09.583Z,2.70
2023-02-28T04:01:39.328Z,3.10
2023-02-28T04:04:07.608Z,3.23
2023-02-28T04:06:37.247Z,2.70
2023-02-28T04:09:06.094Z,2.63
2023-02-28T04:11:36.918Z,2.90
2023-02-28T04:14:05.771Z,2.47
2023-02-28T04:16:35.975Z,2.90
2023-02-28T04:19:06.046Z,3.20
2023-02-28T04:21:36.542Z,2.50
2023-02-28T04:24:05.100Z,2.50
2023-02-28T04:26:33.510Z,2.87
2023-02-28T04:29:02.026Z,2.63
2023-02-28T04:31:30.148Z,2.90
2023-02-28T04:33:58.502Z,2.63
2023-02-28T04:36:26.773Z,3.00
2023-02-28T04:38:56.166Z,2.87
2023-02-28T04:41:24.306Z,2.50
2023-02-28T04:43:53.327Z,3.10
2023-02-28T04:46:21.995Z,3.40
2023-02-28T04:48:49.854Z,3.03
2023-02-28T04:51:19.501Z,2.93
2023-02-28T04:53:47.898Z,3.47
2023-02-28T04:56:18.161Z,3.13
2023-02-28T04:58:46.407Z,2.67
2023-02-28T05:01:21.444Z,2.83
2023-02-28T05:03:49.395Z,3.20
2023-02-28T05:06:17.817Z,3.20
2023-02-28T05:08:46.047Z,3.93
2023-02-28T05:11:23.199Z,3.40
2023-02-28T05:13:51.554Z,3.40
2023-02-28T05:16:19.942Z,3.20
2023-02-28T05:18:47.905Z,3.77
2023-02-28T05:21:31.044Z,3.60
2023-02-28T05:24:00.940Z,3.30
2023-02-28T05:26:30.383Z,3.07
2023-02-28T05:28:58.529Z,2.73
2023-02-28T05:31:26.555Z,3.47
2023-02-28T05:33:54.417Z,3.67
2023-02-28T05:36:22.812Z,3.33
2023-02-28T05:38:51.373Z,3.30
2023-02-28T05:41:20.396Z,2.70
2023-02-28T05:43:50.394Z,3.40
2023-02-28T05:46:18.420Z,2.77
2023-02-28T05:48:49.615Z,3.67
2023-02-28T05:51:18.128Z,3.30
2023-02-28T05:53:46.281Z,3.20
2023-02-28T05:56:15.764Z,3.57
2023-02-28T05:58:43.655Z,2.93
2023-02-28T06:01:37.231Z,3.63
2023-02-28T06:04:07.073Z,3.00
2023-02-28T06:06:37.375Z,3.50
2023-02-28T06:09:05.754Z,3.50
2023-02-28T06:11:33.877Z,3.00
2023-02-28T06:14:02.916Z,3.13
2023-02-28T06:16:33.449Z,2.70
2023-02-28T06:19:02.938Z,3.70
2023-02-28T06:21:31.617Z,3.00
2023-02-28T06:24:00.136Z,2.30
2023-02-28T06:26:28.401Z,3.40
2023-02-28T06:28:58.410Z,3.50
2023-02-28T06:31:28.378Z,2.63
2023-02-28T06:33:58.067Z,2.57
2023-02-28T06:36:33.740Z,2.83
2023-02-28T06:39:01.823Z,2.80
2023-02-28T06:41:34.440Z,2.87
2023-02-28T06:44:14.227Z,2.83
2023-02-28T06:46:42.983Z,2.43
2023-02-28T06:49:12.978Z,2.20
2023-02-28T06:51:44.574Z,2.67
2023-02-28T06:54:12.783Z,3.13
2023-02-28T06:56:42.036Z,2.37
2023-02-28T06:59:12.700Z,2.30
2023-02-28T07:01:40.979Z,2.33
2023-02-28T07:04:09.997Z,2.70
2023-02-28T07:06:39.675Z,2.40
2023-02-28T07:09:08.527Z,2.30
2023-02-28T07:11:36.414Z,2.33
2023-02-28T07:14:05.046Z,2.40
2023-02-28T07:16:34.339Z,2.30
2023-02-28T07:19:02.214Z,2.20
2023-02-28T07:21:30.349Z,2.13
2023-02-28T07:24:01.436Z,2.43
2023-02-28T07:26:29.221Z,2.30
2023-02-28T07:29:00.408Z,2.00
2023-02-28T07:31:28.593Z,2.33
2023-02-28T07:33:57.587Z,2.20
2023-02-28T07:36:25.474Z,2.27
2023-02-28T07:38:56.036Z,2.60
2023-02-28T07:41:28.656Z,2.57
2023-02-28T07:43:58.298Z,2.17
2023-02-28T07:46:27.281Z,1.90
2023-02-28T07:49:00.408Z,2.20
2023-02-28T07:51:29.930Z,2.10
2023-02-28T07:53:57.997Z,2.50
2023-02-28T07:56:27.585Z,2.20
2023-02-28T07:58:56.092Z,2.10
2023-02-28T08:01:23.989Z,2.10
2023-02-28T08:03:51.905Z,2.20
2023-02-28T08:06:22.813Z,2.00
2023-02-28T08:08:50.956Z,1.90
2023-02-28T08:11:19.381Z,2.10
2023-02-28T08:13:48.849Z,2.30
2023-02-28T08:16:23.625Z,2.10
2023-02-28T08:18:52.197Z,2.00
2023-02-28T08:21:20.536Z,2.20
2023-02-28T08:23:49.448Z,2.30
2023-02-28T08:26:17.941Z,2.17
2023-02-28T08:28:46.258Z,2.30
2023-02-28T08:31:19.846Z,2.20
2023-02-28T08:33:49.721Z,2.30
2023-02-28T08:36:20.734Z,2.27
2023-02-28T08:38:48.797Z,2.33
2023-02-28T08:41:19.833Z,2.47
2023-02-28T08:43:47.660Z,2.50
2023-02-28T08:46:17.203Z,2.50
2023-02-28T08:48:47.268Z,2.50
2023-02-28T08:51:29.132Z,2.23
2023-02-28T08:54:09.154Z,2.30
2023-02-28T08:56:43.349Z,2.47
2023-02-28T08:59:19.420Z,2.67
2023-02-28T09:01:52.452Z,2.60
2023-02-28T09:04:25.188Z,2.27
2023-02-28T09:06:56.293Z,2.30
2023-02-28T09:09:30.443Z,2.77
2023-02-28T09:12:14.064Z,2.77
2023-02-28T09:14:45.591Z,2.83
2023-02-28T09:17:33.593Z,3.03
2023-02-28T09:20:14.514Z,2.90
2023-02-28T09:22:49.455Z,3.20
2023-02-28T09:25:24.727Z,3.20
2023-02-28T09:27:54.406Z,3.10
2023-02-28T09:33:13.615Z,3.30
2023-02-28T09:35:44.886Z,3.17
2023-02-28T09:38:19.704Z,3.37
2023-02-28T09:40:57.923Z,2.97
2023-02-28T09:43:31.921Z,3.03
2023-02-28T09:46:09.548Z,3.53
2023-02-28T09:48:47.529Z,3.33
2023-02-28T09:51:34.686Z,3.20
2023-02-28T09:54:04.250Z,3.50
2023-02-28T09:56:36.184Z,3.67
2023-02-28T09:59:09.596Z,3.67
2023-02-28T10:01:44.397Z,3.47
2023-02-28T10:04:20.955Z,3.30
2023-02-28T10:06:51.141Z,3.60
2023-02-28T10:09:24.978Z,3.00
2023-02-28T10:11:58.963Z,3.50
2023-02-28T10:14:29.049Z,3.57
2023-02-28T10:17:01.348Z,3.80
2023-02-28T10:19:37.749Z,3.50
2023-02-28T10:22:10.798Z,3.63
2023-02-28T10:24:43.286Z,3.83
2023-02-28T10:27:18.579Z,3.60
2023-02-28T10:29:49.234Z,3.97
2023-02-28T10:32:21.521Z,3.50
2023-02-28T10:34:59.377Z,3.70
2023-02-28T10:37:27.781Z,3.67
2023-02-28T10:40:08.165Z,4.30
2023-02-28T10:42:40.894Z,3.63
2023-02-28T10:45:14.580Z,3.50
2023-02-28T10:47:54.731Z,3.67
2023-02-28T10:50:35.273Z,4.00
2023-02-28T10:53:27.281Z,3.90
2023-02-28T10:56:05.491Z,4.40
2023-02-28T10:58:48.746Z,4.03
2023-02-28T11:01:24.226Z,3.77
2023-02-28T11:03:54.215Z,3.80
2023-02-28T11:06:25.079Z,4.23
2023-02-28T11:08:55.752Z,4.10
2023-02-28T11:11:26.256Z,4.30
2023-02-28T11:14:00.781Z,3.70
2023-02-28T11:16:35.342Z,4.43
2023-02-28T11:19:05.653Z,3.97
2023-02-28T11:21:37.715Z,3.57
2023-02-28T11:24:08.791Z,3.93
2023-02-28T11:26:39.367Z,4.00
2023-02-28T11:29:23.510Z,3.93
2023-02-28T11:32:19.999Z,4.00
2023-02-28T11:34:50.212Z,4.10
2023-02-28T11:37:22.010Z,4.30
2023-02-28T11:39:50.355Z,4.30
2023-02-28T11:42:43.129Z,3.60
2023-02-28T11:45:34.085Z,4.30
2023-02-28T11:48:06.968Z,4.30
2023-02-28T11:50:44.843Z,4.17
2023-02-28T11:53:24.086Z,4.60
2023-02-28T11:55:57.095Z,4.40
2023-02-28T11:58:48.487Z,4.60
2023-02-28T12:01:34.547Z,4.50
2023-02-28T12:04:12.153Z,4.33
2023-02-28T12:06:47.002Z,4.20
2023-02-28T12:09:34.720Z,4.33
2023-02-28T12:12:07.755Z,4.60
2023-02-28T12:15:00.384Z,4.07
2023-02-28T12:17:40.325Z,4.40
2023-02-28T12:20:18.406Z,4.47
2023-02-28T12:22:54.265Z,4.20
2023-02-28T12:25:51.483Z,4.63
2023-02-28T12:28:24.396Z,4.57
2023-02-28T12:30:56.911Z,4.40
2023-02-28T12:33:30.575Z,4.33
2023-02-28T12:36:02.566Z,4.37
2023-02-28T12:38:33.466Z,4.70
2023-02-28T12:41:14.002Z,4.53
2023-02-28T12:43:46.303Z,5.00
2023-02-28T12:46:19.689Z,4.40
2023-02-28T12:48:50.603Z,4.57
2023-02-28T12:51:19.754Z,4.47
2023-02-28T12:53:59.766Z,4.27
2023-02-28T12:56:41.325Z,4.60
2023-02-28T12:59:17.895Z,4.40
2023-02-28T13:01:59.868Z,4.77
2023-02-28T13:04:52.614Z,4.80
2023-02-28T13:07:41.651Z,4.70
2023-02-28T13:10:11.002Z,4.13
2023-02-28T13:12:50.156Z,4.40
2023-02-28T13:15:23.038Z,4.67
2023-02-28T13:17:52.233Z,4.60
2023-02-28T13:20:23.244Z,4.63
2023-02-28T13:22:54.027Z,4.90
2023-02-28T13:25:58.808Z,4.60
2023-02-28T13:29:09.584Z,5.30
2023-02-28T13:32:23.052Z,4.90
2023-02-28T13:35:18.433Z,5.00
2023-02-28T13:37:50.978Z,5.10
2023-02-28T13:40:37.974Z,5.00
2023-02-28T13:43:10.336Z,4.67
2023-02-28T13:45:39.665Z,4.93
2023-02-28T13:48:19.324Z,4.80
2023-02-28T13:50:54.073Z,5.00
2023-02-28T13:53:46.512Z,4.77
2023-02-28T13:56:29.845Z,5.00
2023-02-28T13:59:03.014Z,5.00
2023-02-28T14:01:53.730Z,5.20
2023-02-28T14:04:41.888Z,5.13
2023-02-28T14:07:12.301Z,4.97
2023-02-28T14:09:43.084Z,5.13
2023-02-28T14:12:48.863Z,5.30
2023-02-28T14:15:45.227Z,5.30
2023-02-28T14:18:19.858Z,4.83
2023-02-28T14:20:49.758Z,4.80
2023-02-28T14:23:37.680Z,5.30
2023-02-28T14:26:13.704Z,5.30
2023-02-28T14:28:50.998Z,5.13
2023-02-28T14:31:25.862Z,4.63
2023-02-28T14:34:08.082Z,4.70
2023-02-28T14:36:38.354Z,5.03
2023-02-28T14:39:10.960Z,5.30
2023-02-28T14:41:44.489Z,5.23
2023-02-28T14:44:18.618Z,5.00
2023-02-28T14:46:49.236Z,4.80
2023-02-28T14:49:23.304Z,5.00
2023-02-28T14:51:53.048Z,4.80
2023-02-28T14:54:26.549Z,4.60
2023-02-28T14:56:57.591Z,5.20
2023-02-28T14:59:29.112Z,4.77
2023-02-28T15:02:18.971Z,5.30
2023-02-28T15:04:56.572Z,4.80
2023-02-28T15:07:29.407Z,4.73
2023-02-28T15:10:13.910Z,4.60
2023-02-28T15:12:42.725Z,4.97
2023-02-28T15:15:17.419Z,4.90
2023-02-28T15:17:48.067Z,4.87
2023-02-28T15:20:20.982Z,4.40
2023-02-28T15:22:50.240Z,4.63
2023-02-28T15:25:21.477Z,4.90
2023-02-28T15:27:52.258Z,4.90
2023-02-28T15:30:24.392Z,4.70
2023-02-28T15:33:09.368Z,4.60
2023-02-28T15:35:37.618Z,5.30
2023-02-28T15:38:13.785Z,4.90
2023-02-28T15:40:46.143Z,5.20
2023-02-28T15:43:19.519Z,5.50
2023-02-28T15:45:49.559Z,5.10
2023-02-28T15:48:25.405Z,4.60
2023-02-28T15:50:54.963Z,5.07
2023-02-28T15:53:25.540Z,4.87
2023-02-28T15:56:06.636Z,4.90
2023-02-28T15:58:35.925Z,4.63
2023-02-28T16:01:18.125Z,4.97
2023-02-28T16:03:48.247Z,4.73
2023-02-28T16:06:39.506Z,4.53
2023-02-28T16:09:09.483Z,4.57
2023-02-28T16:11:42.533Z,4.70
2023-02-28T16:14:19.658Z,4.53
2023-02-28T16:16:49.433Z,4.40
2023-02-28T16:19:17.858Z,4.87
2023-02-28T16:21:46.334Z,4.87
2023-02-28T16:24:14.383Z,4.77
2023-02-28T16:26:45.023Z,4.87
2023-02-28T16:29:16.995Z,5.07
2023-02-28T16:31:45.123Z,4.83
2023-02-28T16:34:13.970Z,4.60
2023-02-28T16:36:42.430Z,4.57
2023-02-28T16:39:11.202Z,4.37
2023-02-28T16:41:39.397Z,4.63
2023-02-28T16:44:16.842Z,4.73
2023-02-28T16:46:45.267Z,5.17
2023-02-28T16:49:15.164Z,5.07
2023-02-28T16:51:43.003Z,4.80
2023-02-28T16:54:10.961Z,4.80
2023-02-28T16:56:40.587Z,4.30
2023-02-28T16:59:10.625Z,4.90
2023-02-28T17:01:38.863Z,4.80
2023-02-28T17:04:07.271Z,4.70
2023-02-28T17:06:36.063Z,4.70
2023-02-28T17:09:04.129Z,4.33
2023-02-28T17:11:34.019Z,4.60
2023-02-28T17:14:01.982Z,4.77
2023-02-28T17:16:35.553Z,4.73
2023-02-28T17:19:06.173Z,4.87
2023-02-28T17:21:34.599Z,5.03
2023-02-28T17:24:02.811Z,5.30
2023-02-28T17:26:31.173Z,4.60
2023-02-28T17:29:04.299Z,4.70
2023-02-28T17:31:40.431Z,4.30
2023-02-28T17:34:09.474Z,4.57
2023-02-28T17:36:41.616Z,4.27
2023-02-28T17:39:12.092Z,4.43
2023-02-28T17:41:40.897Z,4.53
2023-02-28T17:44:10.463Z,4.37
2023-02-28T17:46:43.230Z,4.50
2023-02-28T17:49:13.329Z,4.63
2023-02-28T17:51:41.687Z,4.87
2023-02-28T17:54:10.042Z,4.87
2023-02-28T17:56:39.636Z,5.40
2023-02-28T17:59:10.851Z,5.30
2023-02-28T18:01:40.713Z,4.50
2023-02-28T18:04:17.644Z,5.87
2023-02-28T18:06:48.785Z,8.17
2023-02-28T18:09:18.935Z,8.13
2023-02-28T18:11:52.418Z,12.83
2023-02-28T18:14:22.545Z,8.17
2023-02-28T18:16:53.119Z,9.47
2023-02-28T18:19:21.261Z,8.23
2023-02-28T18:21:50.658Z,10.40
2023-02-28T18:24:20.041Z,9.00
2023-02-28T18:26:47.889Z,10.10
2023-02-28T18:29:18.535Z,10.73
2023-02-28T18:31:46.594Z,12.53
2023-02-28T18:34:16.404Z,7.03
2023-02-28T18:36:47.180Z,6.00
2023-02-28T18:39:15.390Z,5.23
2023-02-28T18:41:43.290Z,5.53
2023-02-28T18:44:19.852Z,5.57
2023-02-28T18:46:48.716Z,6.30
2023-02-28T18:49:18.697Z,6.20
2023-02-28T18:51:46.881Z,5.73
2023-02-28T18:54:15.507Z,6.00
2023-02-28T18:56:43.482Z,5.80
2023-02-28T18:59:12.167Z,7.90
2023-02-28T19:01:41.015Z,6.50
2023-02-28T19:04:09.126Z,7.17
2023-02-28T19:06:42.150Z,6.67
2023-02-28T19:09:11.272Z,5.80
2023-02-28T19:11:39.929Z,5.87
2023-02-28T19:14:09.829Z,5.50
2023-02-28T19:16:39.871Z,5.63
2023-02-28T19:19:08.008Z,6.33
2023-02-28T19:21:37.316Z,6.63
2023-02-28T19:24:08.020Z,5.13
2023-02-28T19:26:40.141Z,5.90
2023-02-28T19:29:08.006Z,5.93
2023-02-28T19:31:38.067Z,5.27
2023-02-28T19:34:06.053Z,5.73
2023-02-28T19:36:36.267Z,5.40
2023-02-28T19:39:04.281Z,5.73
2023-02-28T19:41:33.490Z,6.00
2023-02-28T19:44:01.888Z,5.83
2023-02-28T19:46:30.524Z,5.47
2023-02-28T19:48:58.312Z,5.30
2023-02-28T19:51:28.095Z,5.87
2023-02-28T19:53:58.306Z,5.57
2023-02-28T19:56:26.521Z,5.30
2023-02-28T19:58:58.588Z,5.20
2023-02-28T20:01:26.450Z,5.30
2023-02-28T20:03:56.060Z,5.57
2023-02-28T20:06:25.202Z,5.50
2023-02-28T20:08:57.215Z,5.83
2023-02-28T20:11:25.764Z,5.40
2023-02-28T20:14:02.944Z,5.50
2023-02-28T20:16:32.328Z,5.27
2023-02-28T20:19:02.478Z,5.50
2023-02-28T20:21:33.224Z,6.00
2023-02-28T20:24:10.943Z,5.40
2023-02-28T20:27:03.004Z,5.40
2023-02-28T20:29:33.684Z,5.60
2023-02-28T20:32:03.823Z,5.53
2023-02-28T20:37:29.409Z,6.10
2023-02-28T20:39:57.242Z,5.60
2023-02-28T20:42:25.481Z,5.77
2023-02-28T20:44:55.990Z,5.57
2023-02-28T20:47:23.907Z,5.80
2023-02-28T20:49:51.715Z,5.73
2023-02-28T20:52:19.434Z,5.60
2023-02-28T20:54:47.160Z,5.67
2023-02-28T20:57:14.939Z,6.00
2023-02-28T20:59:42.862Z,5.67
2023-02-28T21:02:16.514Z,6.53
2023-02-28T21:04:44.414Z,5.80
2023-02-28T21:07:12.167Z,5.67
2023-02-28T21:09:40.172Z,5.43
2023-02-28T21:12:08.010Z,6.07
2023-02-28T21:14:35.793Z,5.63
2023-02-28T21:17:03.573Z,5.23
2023-02-28T21:19:32.846Z,6.10
2023-02-28T21:22:00.573Z,6.20
2023-02-28T21:24:28.340Z,6.77
2023-02-28T21:26:57.550Z,6.37
2023-02-28T21:29:25.492Z,6.00
2023-02-28T21:31:53.583Z,6.27
2023-02-28T21:34:21.403Z,6.10
2023-02-28T21:36:50.472Z,6.17
2023-02-28T21:39:19.844Z,6.10
2023-02-28T21:41:48.102Z,5.83
2023-02-28T21:44:18.658Z,6.27
2023-02-28T21:46:47.836Z,6.33
2023-02-28T21:49:16.228Z,6.67
2023-02-28T21:51:44.359Z,5.77
2023-02-28T21:54:14.297Z,6.33
2023-02-28T21:56:42.197Z,5.77
2023-02-28T21:59:11.914Z,6.23
2023-02-28T22:01:41.255Z,5.93
2023-02-28T22:04:11.264Z,6.53
2023-02-28T22:06:41.881Z,6.70
2023-02-28T22:09:11.617Z,6.63
2023-02-28T22:11:41.239Z,6.43
2023-02-28T22:14:12.334Z,6.27
2023-02-28T22:16:51.407Z,6.47
2023-02-28T22:19:20.993Z,6.80
2023-02-28T22:21:49.006Z,7.17
2023-02-28T22:24:17.989Z,6.37
2023-02-28T22:26:47.386Z,6.57
2023-02-28T22:29:15.206Z,6.60
2023-02-28T22:31:43.134Z,6.47
2023-02-28T22:34:13.179Z,6.80
2023-02-28T22:36:41.936Z,6.80
2023-02-28T22:39:09.924Z,6.80
2023-02-28T22:41:37.972Z,6.50
2023-02-28T22:44:07.609Z,7.30
2023-02-28T22:46:36.679Z,6.90
2023-02-28T22:49:06.233Z,6.60
2023-02-28T22:51:34.756Z,7.00
2023-02-28T22:54:02.751Z,6.60
2023-02-28T22:56:31.481Z,7.00
2023-02-28T22:59:01.200Z,6.80
2023-02-28T23:01:35.421Z,6.80
2023-02-28T23:04:03.666Z,6.83
2023-02-28T23:06:34.216Z,7.10
2023-02-28T23:09:05.759Z,7.30
2023-02-28T23:11:36.280Z,7.57
2023-02-28T23:14:04.289Z,7.30
2023-02-28T23:16:35.963Z,7.50
2023-02-28T23:19:06.871Z,7.40
2023-02-28T23:21:35.239Z,7.90
2023-02-28T23:24:03.958Z,7.50
2023-02-28T23:26:33.142Z,7.53
2023-02-28T23:29:01.520Z,7.03
2023-02-28T23:31:29.379Z,7.13
2023-02-28T23:33:59.027Z,7.77
2023-02-28T23:36:27.024Z,7.50
2023-02-28T23:38:55.269Z,7.83
2023-02-28T23:41:24.405Z,8.17
2023-02-28T23:43:52.893Z,7.77
2023-02-28T23:46:21.950Z,7.97
2023-02-28T23:48:50.097Z,8.00
2023-02-28T23:51:20.789Z,7.33
2023-02-28T23:53:50.715Z,8.10
2023-02-28T23:56:20.080Z,7.73
2023-02-28T23:58:48.242Z,8.53
